createdAt,value
2023-02-02T00:01:10.866Z,97568.75
2023-02-02T00:03:38.205Z,97584.53
2023-02-02T00:06:05.553Z,97595.53
2023-02-02T00:08:32.355Z,97571.78
2023-02-02T00:10:58.999Z,97590.13
2023-02-02T00:13:25.634Z,97575.09
2023-02-02T00:15:53.941Z,97563.63
2023-02-02T00:18:20.606Z,97572.91
2023-02-02T00:20:49.356Z,97557.41
2023-02-02T00:23:17.372Z,97583.94
2023-02-02T00:25:43.996Z,97548.34
2023-02-02T00:28:10.613Z,97565.53
2023-02-02T00:30:37.297Z,97564.94
2023-02-02T00:33:04.093Z,97565.91
2023-02-02T00:35:30.736Z,97558.28
2023-02-02T00:37:57.376Z,97571.72
2023-02-02T00:40:25.015Z,97566.53
2023-02-02T00:42:51.625Z,97568.66
2023-02-02T00:45:18.564Z,97570.72
2023-02-02T00:47:47.892Z,97574.63
2023-02-02T00:50:17.485Z,97577.50
2023-02-02T00:52:44.104Z,97570.41
2023-02-02T00:55:12.224Z,97573.72
2023-02-02T00:57:39.604Z,97566.91
2023-02-02T01:00:07.492Z,97575.09
2023-02-02T01:02:35.701Z,97572.66
2023-02-02T01:05:02.675Z,97580.06
2023-02-02T01:07:29.371Z,97553.03
2023-02-02T01:09:56.013Z,97571.31
2023-02-02T01:12:22.879Z,97577.44
2023-02-02T01:14:49.505Z,97569.31
2023-02-02T01:17:16.159Z,97563.41
2023-02-02T01:19:42.838Z,97563.97
2023-02-02T01:22:09.682Z,97554.47
2023-02-02T01:24:36.443Z,97562.16
2023-02-02T01:27:03.148Z,97548.59
2023-02-02T01:29:29.846Z,97564.13
2023-02-02T01:31:56.624Z,97573.63
2023-02-02T01:34:23.799Z,97562.59
2023-02-02T01:36:50.421Z,97565.28
2023-02-02T01:39:17.046Z,97566.47
2023-02-02T01:41:43.718Z,97562.28
2023-02-02T01:44:48.033Z,97544.28
2023-02-02T01:47:15.026Z,97539.16
2023-02-02T01:49:42.122Z,97542.38
2023-02-02T01:52:10.503Z,97540.03
2023-02-02T01:54:45.006Z,97530.47
2023-02-02T01:57:28.242Z,97531.84
2023-02-02T01:59:56.986Z,97552.38
2023-02-02T02:02:25.814Z,97537.91
2023-02-02T02:04:52.985Z,97549.16
2023-02-02T02:07:19.670Z,97550.69
2023-02-02T02:09:46.271Z,97557.06
2023-02-02T02:12:15.434Z,97530.22
2023-02-02T02:15:03.959Z,97547.19
2023-02-02T02:18:09.372Z,97543.53
2023-02-02T02:21:41.058Z,97555.00
2023-02-02T02:25:01.454Z,97548.34
2023-02-02T02:28:06.601Z,97550.84
2023-02-02T02:31:16.062Z,97555.81
2023-02-02T02:34:03.640Z,97547.78
2023-02-02T02:37:19.672Z,97545.66
2023-02-02T02:40:22.942Z,97545.50
2023-02-02T02:42:55.888Z,97559.28
2023-02-02T02:45:25.403Z,97554.63
2023-02-02T02:47:52.983Z,97539.88
2023-02-02T02:50:19.662Z,97563.84
2023-02-02T02:52:47.987Z,97588.38
2023-02-02T02:55:15.055Z,97618.66
2023-02-02T02:57:54.524Z,97633.91
2023-02-02T03:01:01.999Z,97641.66
2023-02-02T03:04:05.129Z,97680.34
2023-02-02T03:06:38.119Z,97667.66
2023-02-02T03:09:10.743Z,97691.97
2023-02-02T03:11:37.433Z,97723.91
2023-02-02T03:14:04.676Z,97729.31
2023-02-02T03:16:31.372Z,97735.19
2023-02-02T03:18:58.082Z,97732.97
2023-02-02T03:21:24.860Z,97728.03
2023-02-02T03:23:51.541Z,97730.72
2023-02-02T03:26:18.211Z,97723.38
2023-02-02T03:28:44.853Z,97724.31
2023-02-02T03:31:11.822Z,97720.19
2023-02-02T03:33:38.921Z,97708.00
2023-02-02T03:36:06.155Z,97722.44
2023-02-02T03:38:32.762Z,97714.09
2023-02-02T03:40:59.391Z,97698.44
2023-02-02T03:43:26.183Z,97698.72
2023-02-02T03:46:01.036Z,97713.38
2023-02-02T03:48:27.772Z,97707.50
2023-02-02T03:50:54.493Z,97706.53
2023-02-02T03:53:21.192Z,97715.81
2023-02-02T03:55:47.819Z,97722.66
2023-02-02T03:58:14.501Z,97716.81
2023-02-02T04:00:41.391Z,97722.69
2023-02-02T04:03:08.067Z,97722.91
2023-02-02T04:05:34.789Z,97728.53
2023-02-02T04:08:01.435Z,97732.47
2023-02-02T04:10:28.063Z,97740.81
2023-02-02T04:12:54.687Z,97736.16
2023-02-02T04:15:21.359Z,97737.63
2023-02-02T04:17:48.021Z,97742.75
2023-02-02T04:20:14.655Z,97741.75
2023-02-02T04:22:41.321Z,97740.28
2023-02-02T04:25:08.326Z,97751.75
2023-02-02T04:27:35.018Z,97744.19
2023-02-02T04:30:01.799Z,97752.00
2023-02-02T04:32:29.188Z,97747.59
2023-02-02T04:34:55.847Z,97746.88
2023-02-02T04:37:22.514Z,97743.72
2023-02-02T04:39:49.276Z,97746.19
2023-02-02T04:42:15.891Z,97746.16
2023-02-02T04:44:44.056Z,97744.47
2023-02-02T04:47:10.688Z,97748.38
2023-02-02T04:49:37.859Z,97759.63
2023-02-02T04:52:05.779Z,97754.78
2023-02-02T04:54:33.122Z,97754.03
2023-02-02T04:57:00.013Z,97758.19
2023-02-02T04:59:28.659Z,97758.91
2023-02-02T05:01:55.272Z,97767.97
2023-02-02T05:04:21.953Z,97778.03
2023-02-02T05:06:48.660Z,97782.66
2023-02-02T05:09:15.511Z,97781.91
2023-02-02T05:11:44.517Z,97785.56
2023-02-02T05:14:11.696Z,97782.66
2023-02-02T05:16:39.680Z,97789.03
2023-02-02T05:19:06.337Z,97809.56
2023-02-02T05:21:32.981Z,97811.78
2023-02-02T05:24:01.159Z,97803.69
2023-02-02T05:26:27.827Z,97811.53
2023-02-02T05:28:54.585Z,97813.72
2023-02-02T05:31:21.321Z,97820.56
2023-02-02T05:33:48.170Z,97817.13
2023-02-02T05:36:14.854Z,97816.41
2023-02-02T05:38:41.481Z,97816.16
2023-02-02T05:41:08.119Z,97814.69
2023-02-02T05:43:34.908Z,97825.44
2023-02-02T05:46:02.119Z,97812.97
2023-02-02T05:48:28.907Z,97838.19
2023-02-02T05:51:10.827Z,97840.88
2023-02-02T05:53:37.567Z,97841.63
2023-02-02T05:56:04.527Z,97860.47
2023-02-02T05:58:31.138Z,97852.88
2023-02-02T06:00:57.761Z,97850.16
2023-02-02T06:03:24.489Z,97865.09
2023-02-02T06:05:51.192Z,97848.94
2023-02-02T06:08:17.872Z,97855.47
2023-02-02T06:10:44.853Z,97853.75
2023-02-02T06:13:11.733Z,97847.19
2023-02-02T06:15:38.737Z,97842.28
2023-02-02T06:18:08.374Z,97839.88
2023-02-02T06:20:35.612Z,97833.78
2023-02-02T06:23:02.285Z,97832.53
2023-02-02T06:25:28.929Z,97835.19
2023-02-02T06:27:57.419Z,97836.91
2023-02-02T06:30:24.267Z,97836.19
2023-02-02T06:32:50.964Z,97840.06
2023-02-02T06:35:17.873Z,97846.19
2023-02-02T06:37:44.733Z,97838.13
2023-02-02T06:40:11.953Z,97835.19
2023-02-02T06:42:38.599Z,97843.78
2023-02-02T06:45:05.768Z,97850.59
2023-02-02T06:47:33.305Z,97868.47
2023-02-02T06:49:59.939Z,97873.13
2023-02-02T06:52:26.724Z,97872.84
2023-02-02T06:54:53.350Z,97873.13
2023-02-02T06:57:20.055Z,97886.34
2023-02-02T06:59:47.253Z,97885.59
2023-02-02T07:02:14.093Z,97873.63
2023-02-02T07:04:40.715Z,97868.00
2023-02-02T07:07:07.360Z,97875.81
2023-02-02T07:09:35.208Z,97873.59
2023-02-02T07:12:02.036Z,97884.13
2023-02-02T07:14:28.664Z,97884.63
2023-02-02T07:16:55.274Z,97888.03
2023-02-02T07:19:21.913Z,97889.72
2023-02-02T07:21:48.525Z,97879.69
2023-02-02T07:24:15.171Z,97874.78
2023-02-02T07:26:41.870Z,97871.16
2023-02-02T07:29:12.129Z,97869.44
2023-02-02T07:31:38.962Z,97873.13
2023-02-02T07:34:05.857Z,97879.25
2023-02-02T07:36:32.570Z,97890.06
2023-02-02T07:38:59.734Z,97885.63
2023-02-02T07:41:26.390Z,97876.84
2023-02-02T07:43:53.058Z,97886.16
2023-02-02T07:46:20.813Z,97893.25
2023-02-02T07:48:47.605Z,97891.53
2023-02-02T07:51:17.396Z,97890.31
2023-02-02T07:53:45.905Z,97904.00
2023-02-02T07:56:20.514Z,97910.19
2023-02-02T07:58:47.350Z,97919.47
2023-02-02T08:01:15.656Z,97907.22
2023-02-02T08:03:43.302Z,97912.38
2023-02-02T08:06:15.997Z,97911.63
2023-02-02T08:08:42.588Z,97914.31
2023-02-02T08:11:11.056Z,97905.47
2023-02-02T08:13:38.332Z,97917.47
2023-02-02T08:16:06.473Z,97927.00
2023-02-02T08:18:34.463Z,97920.22
2023-02-02T08:21:02.860Z,97911.38
2023-02-02T08:23:29.577Z,97917.78
2023-02-02T08:26:06.072Z,97914.81
2023-02-02T08:28:32.888Z,97924.88
2023-02-02T08:31:15.166Z,97929.28
2023-02-02T08:33:41.865Z,97928.81
2023-02-02T08:36:13.047Z,97929.03
2023-02-02T08:38:39.704Z,97934.16
2023-02-02T08:41:07.468Z,97924.88
2023-02-02T08:43:34.611Z,97919.47
2023-02-02T08:46:05.345Z,97924.63
2023-02-02T08:48:33.668Z,97925.84
2023-02-02T08:51:01.482Z,97925.16
2023-02-02T08:53:28.611Z,97934.44
2023-02-02T08:56:02.637Z,97921.94
2023-02-02T08:58:29.945Z,97921.69
2023-02-02T09:01:08.489Z,97927.84
2023-02-02T09:03:35.379Z,97913.63
2023-02-02T09:06:13.392Z,97934.69
2023-02-02T09:08:40.549Z,97924.91
2023-02-02T09:11:16.654Z,97926.38
2023-02-02T09:13:45.766Z,97924.44
2023-02-02T09:16:13.994Z,97929.78
2023-02-02T09:18:41.653Z,97924.63
2023-02-02T09:21:11.532Z,97940.28
2023-02-02T09:23:40.170Z,97934.66
2023-02-02T09:26:22.459Z,97938.84
2023-02-02T09:28:54.607Z,97942.00
2023-02-02T09:31:22.111Z,97943.25
2023-02-02T09:33:49.002Z,97954.75
2023-02-02T09:36:18.910Z,97959.88
2023-02-02T09:38:45.917Z,97972.59
2023-02-02T09:41:58.326Z,97972.59
2023-02-02T09:44:37.531Z,97972.31
2023-02-02T09:47:16.462Z,97982.38
2023-02-02T09:50:26.559Z,97982.63
2023-02-02T09:53:04.994Z,97978.72
2023-02-02T09:55:39.640Z,97987.03
2023-02-02T09:58:53.501Z,97988.47
2023-02-02T10:01:31.199Z,97982.09
2023-02-02T10:04:19.502Z,97992.66
2023-02-02T10:06:52.709Z,97999.25
2023-02-02T10:09:44.495Z,97998.22
2023-02-02T10:12:28.367Z,98001.16
2023-02-02T10:15:33.523Z,98010.97
2023-02-02T10:18:35.575Z,98007.56
2023-02-02T10:21:12.970Z,98009.06
2023-02-02T10:23:42.510Z,98014.72
2023-02-02T10:26:35.933Z,98012.78
2023-02-02T10:29:18.877Z,98015.91
2023-02-02T10:32:23.164Z,98026.66
2023-02-02T10:35:28.426Z,98014.19
2023-02-02T10:38:33.858Z,98013.75
2023-02-02T10:41:47.789Z,98008.88
2023-02-02T10:44:45.358Z,98016.44
2023-02-02T10:47:23.606Z,98024.97
2023-02-02T10:49:58.542Z,98015.22
2023-02-02T10:52:32.097Z,98021.56
2023-02-02T10:55:23.872Z,98018.94
2023-02-02T10:58:26.277Z,98014.75
2023-02-02T11:00:55.274Z,98004.22
2023-02-02T11:03:26.139Z,98003.25
2023-02-02T11:06:11.865Z,98002.25
2023-02-02T11:08:43.664Z,97998.09
2023-02-02T11:11:23.657Z,97987.03
2023-02-02T11:14:14.694Z,97998.09
2023-02-02T11:16:45.673Z,97989.53
2023-02-02T11:19:23.237Z,98001.50
2023-02-02T11:21:56.409Z,97994.69
2023-02-02T11:24:45.334Z,98005.22
2023-02-02T11:27:19.852Z,97997.66
2023-02-02T11:29:49.557Z,98008.44
2023-02-02T11:32:31.953Z,98014.56
2023-02-02T11:35:04.684Z,98002.09
2023-02-02T11:37:33.114Z,98013.34
2023-02-02T11:40:37.254Z,98012.81
2023-02-02T11:43:14.264Z,98011.34
2023-02-02T11:45:44.437Z,98012.31
2023-02-02T11:48:20.570Z,97998.63
2023-02-02T11:50:53.902Z,98001.28
2023-02-02T11:53:30.255Z,98008.63
2023-02-02T11:56:01.582Z,97997.13
2023-02-02T11:58:42.273Z,98001.53
2023-02-02T12:01:26.914Z,97998.13
2023-02-02T12:03:59.619Z,97990.06
2023-02-02T12:06:34.028Z,97997.16
2023-02-02T12:09:02.720Z,97988.09
2023-02-02T12:11:59.598Z,97987.09
2023-02-02T12:15:24.751Z,97981.69
2023-02-02T12:18:15.395Z,97975.09
2023-02-02T12:21:08.261Z,97980.47
2023-02-02T12:24:07.760Z,97969.69
2023-02-02T12:26:38.041Z,97960.66
2023-02-02T13:02:30.423Z,97974.53
2023-02-02T13:05:08.695Z,97973.03
2023-02-02T13:07:47.729Z,97979.94
2023-02-02T13:10:22.816Z,97977.22
2023-02-02T13:12:57.330Z,97975.75
2023-02-02T13:15:32.751Z,97973.28
2023-02-02T13:18:01.649Z,97980.63
2023-02-02T13:20:37.896Z,97983.84
2023-02-02T13:23:12.703Z,97984.56
2023-02-02T13:25:53.584Z,97978.47
2023-02-02T13:28:36.989Z,97990.75
2023-02-02T13:31:08.292Z,97989.25
2023-02-02T13:33:37.163Z,97990.72
2023-02-02T13:36:14.774Z,97996.38
2023-02-02T13:38:42.527Z,97990.97
2023-02-02T13:41:16.155Z,97995.13
2023-02-02T13:44:00.327Z,97992.97
2023-02-02T13:46:59.297Z,97996.31
2023-02-02T13:49:32.045Z,98000.28
2023-02-02T13:52:49.568Z,97999.09
2023-02-02T13:55:58.164Z,97999.81
2023-02-02T13:59:09.285Z,98004.91
2023-02-02T14:01:36.394Z,98008.56
2023-02-02T14:04:04.503Z,98011.75
2023-02-02T14:06:54.095Z,98008.59
2023-02-02T14:09:20.840Z,98013.03
2023-02-02T14:11:57.792Z,98014.75
2023-02-02T14:14:38.159Z,98011.81
2023-02-02T14:17:53.790Z,98022.81
2023-02-02T14:20:43.967Z,98021.41
2023-02-02T14:23:48.242Z,98024.78
2023-02-02T14:26:20.228Z,98028.16
2023-02-02T14:28:49.925Z,98031.78
2023-02-02T14:31:42.296Z,98041.88
2023-02-02T14:34:26.919Z,98040.38
2023-02-02T14:37:20.650Z,98046.78
2023-02-02T14:40:10.203Z,98042.09
2023-02-02T14:43:44.298Z,98044.28
2023-02-02T14:46:33.959Z,98047.97
2023-02-02T14:49:25.767Z,98047.50
2023-02-02T14:51:55.950Z,98046.25
2023-02-02T14:54:49.106Z,98049.22
2023-02-02T14:57:27.811Z,98050.19
2023-02-02T14:59:58.665Z,98055.09
2023-02-02T15:02:35.969Z,98057.97
2023-02-02T15:05:41.773Z,98058.25
2023-02-02T15:08:20.336Z,98059.94
2023-02-02T15:11:24.675Z,98065.34
2023-02-02T15:13:57.349Z,98067.53
2023-02-02T15:16:31.982Z,98061.91
2023-02-02T15:19:08.212Z,98071.75
2023-02-02T15:21:39.336Z,98067.78
2023-02-02T15:24:17.014Z,98076.38
2023-02-02T15:26:45.215Z,98076.09
2023-02-02T15:29:22.095Z,98077.09
2023-02-02T15:31:54.704Z,98087.13
2023-02-02T15:34:42.244Z,98093.97
2023-02-02T15:37:15.982Z,98088.59
2023-02-02T15:39:52.682Z,98098.91
2023-02-02T15:42:40.437Z,98092.97
2023-02-02T15:45:27.585Z,98101.47
2023-02-02T15:47:55.655Z,98107.63
2023-02-02T15:50:22.681Z,98111.03
2023-02-02T15:52:51.842Z,98110.59
2023-02-02T15:55:38.673Z,98119.19
2023-02-02T15:58:23.658Z,98127.94
2023-02-02T16:01:21.570Z,98130.66
2023-02-02T16:04:19.678Z,98138.41
2023-02-02T16:06:47.401Z,98136.72
2023-02-02T16:09:25.399Z,98141.31
2023-02-02T16:11:52.341Z,98149.66
2023-02-02T16:14:19.707Z,98153.09
2023-02-02T16:16:49.532Z,98163.41
2023-02-02T16:19:21.279Z,98165.81
2023-02-02T16:22:01.992Z,98171.03
2023-02-02T16:24:32.673Z,98174.97
2023-02-02T16:27:02.097Z,98179.56
2023-02-02T16:29:29.397Z,98180.06
2023-02-02T16:31:56.917Z,98186.91
2023-02-02T16:34:46.781Z,98194.03
2023-02-02T16:37:32.811Z,98201.16
2023-02-02T16:40:24.712Z,98201.09
2023-02-02T16:43:15.768Z,98210.91
2023-02-02T16:45:57.632Z,98213.81
2023-02-02T16:48:36.457Z,98211.50
2023-02-02T16:51:11.911Z,98213.25
2023-02-02T16:53:38.826Z,98218.19
2023-02-02T16:56:07.176Z,98224.88
2023-02-02T16:58:39.850Z,98230.03
2023-02-02T17:01:15.560Z,98234.19
2023-02-02T17:03:54.689Z,98240.03
2023-02-02T17:06:50.420Z,98243.28
2023-02-02T17:09:33.234Z,98239.59
2023-02-02T17:12:33.098Z,98246.34
2023-02-02T17:15:35.215Z,98258.34
2023-02-02T17:18:04.295Z,98266.44
2023-02-02T17:20:32.468Z,98271.56
2023-02-02T17:23:03.173Z,98274.91
2023-02-02T17:25:40.534Z,98285.59
2023-02-02T17:28:11.907Z,98298.50
2023-02-02T17:30:47.205Z,98304.72
2023-02-02T17:33:16.253Z,98297.41
2023-02-02T17:35:54.325Z,98303.22
2023-02-02T17:38:27.710Z,98306.38
2023-02-02T17:40:55.699Z,98305.41
2023-02-02T17:43:22.275Z,98311.38
2023-02-02T17:45:49.495Z,98316.88
2023-02-02T17:48:16.576Z,98314.69
2023-02-02T17:50:43.860Z,98324.94
2023-02-02T17:53:16.326Z,98322.28
2023-02-02T17:55:43.531Z,98325.19
2023-02-02T17:58:13.217Z,98327.72
2023-02-02T18:00:40.834Z,98329.25
2023-02-02T18:03:13.852Z,98337.88
2023-02-02T18:05:43.390Z,98340.03
2023-02-02T18:08:13.543Z,98341.19
2023-02-02T18:10:41.164Z,98335.97
2023-02-02T18:13:07.863Z,98342.81
2023-02-02T18:15:35.293Z,98345.13
2023-02-02T18:18:02.199Z,98334.97
2023-02-02T18:20:28.996Z,98340.22
2023-02-02T18:22:55.837Z,98329.66
2023-02-02T18:25:22.411Z,98328.38
2023-02-02T18:27:51.367Z,98328.66
2023-02-02T18:30:18.211Z,98347.97
2023-02-02T18:32:44.855Z,98315.88
2023-02-02T18:35:12.379Z,98323.25
2023-02-02T18:37:40.089Z,98327.50
2023-02-02T18:40:08.002Z,98321.59
2023-02-02T18:42:35.805Z,98317.97
2023-02-02T18:45:04.701Z,98323.75
2023-02-02T18:47:31.299Z,98316.47
2023-02-02T18:49:57.861Z,98329.91
2023-02-02T18:52:24.536Z,98336.50
2023-02-02T18:54:51.107Z,98349.06
2023-02-02T18:57:17.821Z,98354.81
2023-02-02T18:59:44.520Z,98364.66
2023-02-02T19:02:15.833Z,98359.22
2023-02-02T19:05:01.270Z,98376.06
2023-02-02T19:07:46.719Z,98372.34
2023-02-02T19:10:13.676Z,98364.38
2023-02-02T19:12:40.258Z,98372.06
2023-02-02T19:15:12.324Z,98374.91
2023-02-02T19:17:39.912Z,98377.72
2023-02-02T19:20:23.284Z,98370.16
2023-02-02T19:22:52.413Z,98379.81
2023-02-02T19:25:19.091Z,98368.25
2023-02-02T19:27:45.681Z,98386.00
2023-02-02T19:30:19.281Z,98384.31
2023-02-02T19:32:46.025Z,98387.50
2023-02-02T19:35:21.484Z,98392.69
2023-02-02T19:37:49.826Z,98393.22
2023-02-02T19:40:25.475Z,98398.25
2023-02-02T19:42:57.523Z,98413.94
2023-02-02T19:45:29.885Z,98413.72
2023-02-02T19:47:58.270Z,98425.44
2023-02-02T19:50:36.636Z,98425.47
2023-02-02T19:53:12.055Z,98428.50
2023-02-02T19:55:40.649Z,98435.84
2023-02-02T19:58:18.241Z,98421.19
2023-02-02T20:00:47.066Z,98443.78
2023-02-02T20:03:19.395Z,98440.06
2023-02-02T20:05:51.277Z,98450.16
2023-02-02T20:08:37.140Z,98444.09
2023-02-02T20:11:28.569Z,98457.06
2023-02-02T20:13:55.124Z,98454.59
2023-02-02T20:16:24.132Z,98462.25
2023-02-02T20:18:55.749Z,98470.41
2023-02-02T20:21:45.544Z,98475.31
2023-02-02T20:24:19.786Z,98470.41
2023-02-02T20:26:46.387Z,98479.00
2023-02-02T20:29:23.051Z,98482.84
2023-02-02T20:31:52.711Z,98486.59
2023-02-02T20:34:32.807Z,98486.59
2023-02-02T20:37:05.831Z,98498.75
2023-02-02T20:39:36.273Z,98502.00
2023-02-02T20:42:04.362Z,98507.06
2023-02-02T20:44:33.006Z,98505.34
2023-02-02T20:47:00.589Z,98502.28
2023-02-02T20:49:28.778Z,98518.28
2023-02-02T20:51:56.609Z,98521.78
2023-02-02T20:54:24.327Z,98511.94
2023-02-02T20:56:51.809Z,98517.41
2023-02-02T20:59:20.148Z,98524.53
2023-02-02T21:01:49.804Z,98521.56
2023-02-02T21:04:17.998Z,98513.91
2023-02-02T21:06:44.783Z,98515.53
2023-02-02T21:09:11.641Z,98515.06
2023-02-02T21:11:38.573Z,98524.16
2023-02-02T21:14:05.464Z,98527.56
2023-02-02T21:16:32.470Z,98523.53
2023-02-02T21:18:59.409Z,98531.69
2023-02-02T21:21:26.125Z,98536.31
2023-02-02T21:23:53.554Z,98535.13
2023-02-02T21:26:23.404Z,98539.50
2023-02-02T21:28:49.982Z,98542.66
2023-02-02T21:31:17.547Z,98535.03
2023-02-02T21:33:45.711Z,98544.19
2023-02-02T21:36:26.795Z,98543.47
2023-02-02T21:38:54.562Z,98541.22
2023-02-02T21:41:21.598Z,98544.25
2023-02-02T21:43:48.329Z,98550.44
2023-02-02T21:46:18.911Z,98549.69
2023-02-02T21:48:47.719Z,98557.22
2023-02-02T21:51:23.026Z,98552.53
2023-02-02T21:53:50.019Z,98556.97
2023-02-02T21:56:39.062Z,98554.94
2023-02-02T21:59:36.729Z,98563.09
2023-02-02T22:02:37.743Z,98557.44
2023-02-02T22:05:27.239Z,98558.91
2023-02-02T22:07:57.577Z,98567.75
2023-02-02T22:10:36.997Z,98559.19
2023-02-02T22:13:25.031Z,98556.97
2023-02-02T22:15:52.857Z,98561.59
2023-02-02T22:18:24.135Z,98564.03
2023-02-02T22:20:52.951Z,98564.84
2023-02-02T22:23:21.909Z,98564.66
2023-02-02T22:25:50.903Z,98577.34
2023-02-02T22:28:36.640Z,98577.53
2023-02-02T22:31:04.967Z,98578.13
2023-02-02T22:33:31.715Z,98573.91
2023-02-02T22:35:58.384Z,98581.09
2023-02-02T22:38:25.588Z,98581.59
2023-02-02T22:40:52.906Z,98586.69
2023-02-02T22:43:20.428Z,98591.69
2023-02-02T22:45:47.760Z,98591.78
2023-02-02T22:48:15.379Z,98593.63
2023-02-02T22:50:42.455Z,98593.28
2023-02-02T22:53:09.218Z,98591.03
2023-02-02T22:55:35.835Z,98602.09
2023-02-02T22:58:02.617Z,98605.31
2023-02-02T23:00:32.974Z,98605.53
2023-02-02T23:02:59.943Z,98613.88
2023-02-02T23:05:27.146Z,98613.00
2023-02-02T23:07:54.053Z,98613.69
2023-02-02T23:10:23.787Z,98611.63
2023-02-02T23:12:53.509Z,98619.16
2023-02-02T23:15:21.010Z,98618.25
2023-02-02T23:17:47.740Z,98613.72
2023-02-02T23:20:15.936Z,98615.84
2023-02-02T23:22:43.142Z,98610.47
2023-02-02T23:25:10.584Z,98609.25
2023-02-02T23:27:37.743Z,98604.50
2023-02-02T23:30:06.648Z,98613.97
2023-02-02T23:32:33.802Z,98613.78
2023-02-02T23:35:00.514Z,98618.34
2023-02-02T23:37:27.202Z,98615.47
2023-02-02T23:39:53.817Z,98615.75
2023-02-02T23:42:20.410Z,98613.91
2023-02-02T23:44:47.121Z,98620.94
2023-02-02T23:47:13.813Z,98624.53
2023-02-02T23:49:40.656Z,98618.81
2023-02-02T23:52:07.511Z,98613.53
2023-02-02T23:54:34.505Z,98613.97
2023-02-02T23:57:01.878Z,98614.06
2023-02-02T23:59:28.563Z,98612.38
